Puerto Banus, Marbella

>

This is an optional block (switch it off / on) in the settings - file ($SITE['banners'] = false;)

You can display ads, any other important text or photo’s using text / html or PHP code.

You can place one or more at the top and or bottom and it can all be different for content / size .


Meteosat more information blitzortung!


Radar lluvias more information rain snow radar


Visita nuestra red de sitios de meteo:

Documentation for the template used

MeteoibericaRed estaciones Meteorologicas

MeteoclimaticRed estaciones Meteorologicas



No particular awareness of the weather is required.    There are no Weather-warnings

Informes METAR proximidad

   
EHVK - Volkel Rnlafb, Netherlands
Distancia hasta la estación: SW 18 km
Actualización: 26-05-2020 21:25
Parcialmente nublado  
Parcialmente nublado  
   Viento: ENE 11.1 km/h
Viento: ENE 11.1 km/h
Temperatura: 18°C
Punto de rocío: 8°C
Humedad: 52%
Baromètro: 1033 hPa
Nublado: Parcialmente nublado
Visibilidad: More than 10 km
detalles de la nube: Nubes dispersas 19000 ft,
Parcialmente nublado 39000 ft
EHVK 261925Z AUTO 06006KT 010V100 9999 FEW190 BKN390 18/08 Q1033 BLU
EDLV - Niederrhein, Germany
Distancia hasta la estación: SE 25 km
Actualización: 26-05-2020 15:50
NO actual
Claros  
Claros  
   Viento: NW 13 km/h
Viento: NW 13 km/h
Temperatura: 22°C
Punto de rocío: 7°C
Humedad: 38%
Baromètro: 1034 hPa
Visibilidad: More than 10 km
detalles de la nube: Claros
EDLV 261350Z 32007KT CAVOK 22/07 Q1034
EHDL - Deelen Rnlafb, Netherlands
Distancia hasta la estación: N 35 km
Actualización: 26-05-2020 21:25
Claros  
Claros  
   Viento: ENE 7.4 km/h
Viento: ENE 7.4 km/h
Temperatura: 18°C
Punto de rocío: 10°C
Humedad: 60%
Baromètro: 1034 hPa
Nublado: Claros
Visibilidad: More than 10 km
detalles de la nube: Claros
EHDL 261925Z AUTO 06004KT 040V100 9999 NCD 18/10 Q1034 BLU
EHEH - Eindhoven Rnlafb, Netherlands
Distancia hasta la estación: SW 48 km
Actualización: 26-05-2020 21:25
Nublado  
Nublado  
   Viento: NNW 7.4 km/h
Viento: NNW 7.4 km/h
Temperatura: 20°C
Punto de rocío: 10°C
Humedad: 53%
Baromètro: 1033 hPa
Nublado: Nublado
Visibilidad: More than 10 km
detalles de la nube: Nublado 18000 ft
EHEH 261925Z AUTO 34004KT 9999 OVC180 20/10 Q1033 BLU
EHGR - Gilze-Rijen Rnla, Netherlands
Distancia hasta la estación: WSW 70 km
Actualización: 26-05-2020 21:25
Parcialmente Nublado  
Parcialmente Nublado  
   Viento: NNW 14.8 km/h
Viento: NNW 14.8 km/h
Temperatura: 19°C
Punto de rocío: 10°C
Humedad: 56%
Baromètro: 1034 hPa
Nublado: Parcialmente Nublado
Visibilidad: More than 10 km
detalles de la nube: Parcialmente Nublado 39000 ft
EHGR 261925Z AUTO 34008KT 280V050 9999 SCT390 19/10 Q1034 BLU 01006KT CAVOK
EBBL - Kleine-Brogel(Ba, Belgium
Distancia hasta la estación: SSW 71 km
Actualización: 26-05-2020 21:25
Parcialmente Nublado  
Parcialmente Nublado  
   Viento: East 5.6 km/h
Viento: East 5.6 km/h
Temperatura: 20°C
Punto de rocío: 8°C
Humedad: 46%
Baromètro: 1033 hPa
Nublado: Parcialmente Nublado
Visibilidad: More than 10 km
detalles de la nube: Nubes dispersas 6500 ft,
Parcialmente Nublado 22000 ft
EBBL 261925Z 09003KT 9999 FEW065 SCT220 20/08 Q1033 BLU BLU

Guión original por  Saratoga-weather.org Adaptado para la plantilla por  Weerstation Leuven

Usted encontrará nuestra información del tiempo también en:

Iberian Peninsula Weather Network